Time;durP1;ratioP1;P1;durP2;ratioP2;P2;SDS_P1;SDS_P2;PMS_P1;PMS_P2;Temp;Humidity;BMP_temperature;BMP_pressure;BME280_temperature;BME280_humidity;BME280_pressure;Samples;Min_cycle;Max_cycle;Signal;HPM_P1;HPM_P2
2022/06/05 00:01:14;;;;;;;10.45;9.07;;;;;;;23.67;100.00;99446.56;5030881;28;20197;-59
2022/06/05 00:03:50;;;;;;;14.48;10.27;;;;;;;23.67;100.00;99448.38;5030738;28;20220;-59
2022/06/05 00:06:24;;;;;;;10.80;9.35;;;;;;;23.55;100.00;99441.44;5030798;28;20239;-57
2022/06/05 00:09:02;;;;;;;11.02;10.02;;;;;;;23.62;100.00;99446.09;5030899;28;20192;-58
2022/06/05 00:11:36;;;;;;;10.32;9.50;;;;;;;23.45;100.00;99428.09;5030759;28;20745;-57
2022/06/05 00:14:03;;;;;;;11.70;9.88;;;;;;;23.55;100.00;99447.59;5030708;28;20593;-57
2022/06/05 00:16:31;;;;;;;9.30;8.40;;;;;;;23.56;100.00;99449.28;5030387;28;20201;-57
2022/06/05 00:18:58;;;;;;;10.73;9.15;;;;;;;23.53;100.00;99452.16;5030518;28;20228;-57
2022/06/05 00:21:25;;;;;;;9.50;8.77;;;;;;;23.55;100.00;99449.41;5030794;28;20606;-57
2022/06/05 00:23:52;;;;;;;10.65;9.57;;;;;;;23.55;100.00;99460.00;5030493;28;20255;-57
2022/06/05 00:26:26;;;;;;;9.77;8.88;;;;;;;23.58;100.00;99460.59;5030339;28;20229;-58
2022/06/05 00:29:01;;;;;;;10.55;9.63;;;;;;;23.51;100.00;99452.28;5030405;28;20703;-57
2022/06/05 00:31:41;;;;;;;9.85;8.85;;;;;;;23.59;100.00;99456.94;5030476;28;20204;-58
2022/06/05 00:34:08;;;;;;;10.18;9.23;;;;;;;23.52;100.00;99455.78;5030697;28;20727;-58
2022/06/05 00:36:52;;;;;;;9.63;8.75;;;;;;;23.52;100.00;99471.69;5030526;28;20596;-58
2022/06/05 00:39:28;;;;;;;18.25;10.48;;;;;;;23.45;100.00;99468.69;5030224;28;20197;-58
2022/06/05 00:41:59;;;;;;;11.93;10.77;;;;;;;23.42;100.00;99466.28;5030522;28;20199;-58
2022/06/05 00:44:31;;;;;;;14.05;10.43;;;;;;;23.29;100.00;99462.09;5030604;28;20193;-58
2022/06/05 00:47:01;;;;;;;11.35;10.52;;;;;;;23.35;100.00;99461.63;5030315;28;20201;-58
2022/06/05 00:49:34;;;;;;;11.15;10.07;;;;;;;23.26;100.00;99444.66;5030249;28;20207;-58
2022/06/05 00:52:08;;;;;;;11.52;10.43;;;;;;;23.22;100.00;99463.59;5030269;28;20200;-58
2022/06/05 00:54:35;;;;;;;12.55;10.45;;;;;;;23.11;100.00;99461.81;5030305;28;20208;-58
2022/06/05 00:57:06;;;;;;;11.80;9.75;;;;;;;22.96;100.00;99431.28;5031056;28;20197;-58
2022/06/05 00:59:33;;;;;;;11.90;9.75;;;;;;;23.00;100.00;99443.31;5034304;28;20197;-58
2022/06/05 01:02:01;;;;;;;11.00;9.25;;;;;;;22.95;100.00;99446.31;5033859;28;20235;-58
2022/06/05 01:04:32;;;;;;;10.18;9.13;;;;;;;22.90;100.00;99443.22;5034062;28;20197;-58
2022/06/05 01:06:59;;;;;;;10.38;9.52;;;;;;;22.86;100.00;99436.47;5033878;28;20202;-58
2022/06/05 01:09:26;;;;;;;14.30;9.55;;;;;;;22.89;100.00;99446.81;5033861;28;20291;-57
2022/06/05 01:12:03;;;;;;;11.60;9.43;;;;;;;22.83;100.00;99442.00;5033908;28;20292;-58
2022/06/05 01:14:39;;;;;;;12.02;9.48;;;;;;;22.75;100.00;99445.28;5034024;28;20211;-57
2022/06/05 01:17:16;;;;;;;11.95;10.73;;;;;;;22.66;100.00;99450.44;5033746;28;20589;-57
2022/06/05 01:19:52;;;;;;;11.43;10.43;;;;;;;22.59;100.00;99450.06;5034076;28;20613;-57
2022/06/05 01:22:54;;;;;;;10.75;9.65;;;;;;;22.49;100.00;99449.13;5033647;28;20203;-59
2022/06/05 01:25:48;;;;;;;12.82;10.13;;;;;;;22.41;100.00;99436.50;5033461;28;20613;-58
2022/06/05 01:28:20;;;;;;;11.43;10.30;;;;;;;22.53;100.00;99450.56;5033816;28;20194;-59
2022/06/05 01:30:52;;;;;;;13.13;10.05;;;;;;;22.53;100.00;99441.78;5033579;28;20201;-57
2022/06/05 01:33:23;;;;;;;11.52;10.15;;;;;;;22.54;100.00;99448.78;5033585;28;20189;-59
2022/06/05 01:36:00;;;;;;;10.70;9.77;;;;;;;22.45;100.00;99453.84;5033513;28;20697;-60
2022/06/05 01:38:37;;;;;;;10.57;9.75;;;;;;;22.40;100.00;99458.63;5033470;28;20203;-59
2022/06/05 01:41:12;;;;;;;10.40;9.48;;;;;;;22.28;100.00;99443.72;5033090;28;20234;-60
2022/06/05 01:43:45;;;;;;;13.10;10.27;;;;;;;22.40;100.00;99441.91;5033351;28;20221;-59
2022/06/05 01:46:18;;;;;;;11.15;10.18;;;;;;;22.50;100.00;99463.19;5033187;28;20193;-59
2022/06/05 01:48:50;;;;;;;10.70;9.65;;;;;;;22.48;100.00;99467.75;5032734;28;20201;-59
2022/06/05 01:51:24;;;;;;;11.48;8.88;;;;;;;22.48;100.00;99457.16;5033186;28;20209;-59
2022/06/05 01:53:55;;;;;;;11.35;9.45;;;;;;;22.48;100.00;99457.16;5033195;28;20204;-59
2022/06/05 01:56:27;;;;;;;10.88;9.23;;;;;;;22.46;100.00;99459.94;5032969;28;20197;-59
2022/06/05 01:58:59;;;;;;;10.35;9.27;;;;;;;22.45;100.00;99452.97;5033327;28;20682;-58
2022/06/05 02:01:31;;;;;;;11.15;10.13;;;;;;;22.49;100.00;99466.78;5033078;28;20209;-57
2022/06/05 02:04:07;;;;;;;9.68;8.85;;;;;;;22.56;100.00;99460.91;5033021;28;20231;-58
2022/06/05 02:06:39;;;;;;;10.07;9.10;;;;;;;22.55;100.00;99464.53;5033121;28;20197;-58
2022/06/05 02:09:13;;;;;;;15.35;9.82;;;;;;;22.50;100.00;99460.53;5022169;28;20197;-57
2022/06/05 02:11:42;;;;;;;10.13;9.15;;;;;;;22.49;100.00;99464.16;5021810;28;20197;-58
2022/06/05 02:14:10;;;;;;;13.10;9.55;;;;;;;22.44;100.00;99459.22;5015278;28;20467;-58
2022/06/05 02:16:39;;;;;;;10.82;9.75;;;;;;;22.43;100.00;99461.03;5013120;28;20588;-59
2022/06/05 02:19:09;;;;;;;10.85;9.82;;;;;;;22.36;100.00;99451.88;5012853;28;20604;-59
2022/06/05 02:21:38;;;;;;;11.93;10.43;;;;;;;22.21;100.00;99462.81;5012788;28;20202;-59
2022/06/05 02:24:07;;;;;;;11.00;9.93;;;;;;;22.13;100.00;99444.06;5012666;28;20547;-59
2022/06/05 02:26:34;;;;;;;11.25;10.15;;;;;;;22.26;100.00;99458.00;5012768;28;20230;-60
2022/06/05 02:29:04;;;;;;;10.93;9.90;;;;;;;22.29;100.00;99447.19;5012777;28;20285;-59
2022/06/05 02:31:43;;;;;;;12.40;10.77;;;;;;;22.31;100.00;99451.41;5012781;28;20198;-59
2022/06/05 02:34:16;;;;;;;12.07;10.88;;;;;;;22.35;100.00;99447.56;5012657;28;20193;-59
2022/06/05 02:36:53;;;;;;;11.68;10.48;;;;;;;22.35;100.00;99444.06;5012924;28;20201;-59
2022/06/05 02:39:31;;;;;;;11.55;9.60;;;;;;;22.31;100.00;99446.13;5012830;28;20193;-59
2022/06/05 02:42:05;;;;;;;11.32;10.45;;;;;;;22.35;100.00;99436.13;5012436;28;20210;-57
2022/06/05 02:44:43;;;;;;;11.07;10.13;;;;;;;22.29;100.00;99415.47;5012369;28;20225;-57
2022/06/05 02:47:22;;;;;;;11.27;10.18;;;;;;;22.42;100.00;99438.19;5012538;28;20208;-57
2022/06/05 02:49:55;;;;;;;13.25;10.18;;;;;;;22.30;100.00;99449.72;5012460;28;20252;-58
2022/06/05 02:52:24;;;;;;;12.05;10.80;;;;;;;22.14;100.00;99459.81;5012393;28;20572;-58
2022/06/05 02:54:57;;;;;;;11.82;10.55;;;;;;;22.03;100.00;99457.13;5012830;28;20260;-60
2022/06/05 02:57:24;;;;;;;12.45;11.10;;;;;;;21.94;100.00;99458.66;5012147;28;20198;-58
2022/06/05 02:59:52;;;;;;;11.27;10.27;;;;;;;21.77;100.00;99445.06;5012467;28;20197;-60
2022/06/05 03:05:04;;;;;;;12.43;11.32;;;;;;;21.87;100.00;99456.63;5012138;28;20374;-59
2022/06/05 03:07:31;;;;;;;11.77;10.85;;;;;;;21.83;100.00;99461.28;5011953;28;20198;-60
2022/06/05 03:09:58;;;;;;;13.68;11.15;;;;;;;21.94;100.00;99457.81;5011987;28;20293;-59
2022/06/05 03:12:25;;;;;;;11.07;10.20;;;;;;;21.94;100.00;99453.38;5012100;28;20202;-59
2022/06/05 03:14:56;;;;;;;11.40;10.30;;;;;;;22.05;100.00;99449.94;5012126;28;20198;-60
2022/06/05 03:17:23;;;;;;;11.48;10.43;;;;;;;22.08;100.00;99444.44;5011917;28;20217;-61
2022/06/05 03:19:50;;;;;;;11.65;10.63;;;;;;;22.09;100.00;99435.53;5011790;28;20201;-61
2022/06/05 03:22:17;;;;;;;11.40;10.52;;;;;;;22.13;100.00;99447.53;5010948;28;20280;-61
2022/06/05 03:24:43;;;;;;;12.48;10.85;;;;;;;22.15;100.00;99458.00;5011432;28;20232;-60
2022/06/05 03:27:10;;;;;;;13.73;11.02;;;;;;;22.21;100.00;99465.47;5011774;28;20582;-58
2022/06/05 03:29:37;;;;;;;12.60;11.32;;;;;;;22.24;100.00;99470.50;5011805;28;20662;-58
2022/06/05 03:32:06;;;;;;;15.02;12.10;;;;;;;22.30;100.00;99470.88;5011554;28;20210;-59
2022/06/05 03:34:34;;;;;;;12.10;10.52;;;;;;;22.35;100.00;99466.06;5011474;28;20600;-59
2022/06/05 03:37:01;;;;;;;14.20;10.43;;;;;;;22.26;100.00;99458.84;5011721;28;20671;-59
2022/06/05 03:39:28;;;;;;;11.07;10.00;;;;;;;22.34;100.00;99456.47;5011465;28;20212;-59
2022/06/05 03:41:55;;;;;;;11.20;10.05;;;;;;;22.38;100.00;99447.31;5011528;28;20413;-58
2022/06/05 03:44:22;;;;;;;10.25;9.45;;;;;;;22.42;100.00;99443.47;5011477;28;20221;-60
2022/06/05 03:46:49;;;;;;;11.18;9.90;;;;;;;22.60;100.00;99442.97;5011171;28;20204;-58
2022/06/05 03:49:17;;;;;;;10.68;9.63;;;;;;;22.91;100.00;99444.88;5014351;28;20207;-58
2022/06/05 03:51:46;;;;;;;10.60;9.68;;;;;;;23.58;100.00;99439.38;5030949;28;20197;-57
2022/06/05 03:54:13;;;;;;;11.57;9.70;;;;;;;24.36;100.00;99430.94;5031140;28;20197;-58
2022/06/05 03:56:41;;;;;;;9.27;8.57;;;;;;;25.63;94.68;99457.59;5030950;28;20194;-58
2022/06/05 03:59:08;;;;;;;9.93;8.95;;;;;;;26.73;86.59;99454.25;5030816;28;20198;-60
2022/06/05 04:01:35;;;;;;;8.95;8.13;;;;;;;27.32;80.63;99457.38;5026684;28;20363;-62
2022/06/05 04:04:02;;;;;;;9.15;8.02;;;;;;;26.93;81.35;99456.81;5025606;28;20220;-60
2022/06/05 04:06:32;;;;;;;9.88;8.15;;;;;;;26.79;82.80;99450.13;5026552;28;20286;-57
2022/06/05 04:09:01;;;;;;;9.23;8.25;;;;;;;26.92;81.06;99452.44;5018210;28;20198;-58
2022/06/05 04:11:29;;;;;;;11.30;9.05;;;;;;;26.23;84.79;99445.72;5020193;28;20204;-58
2022/06/05 04:13:56;;;;;;;8.82;8.00;;;;;;;25.83;86.95;99443.31;5029476;28;20288;-58
2022/06/05 04:16:26;;;;;;;9.27;8.30;;;;;;;25.28;90.29;99444.88;5029568;28;20284;-59
2022/06/05 04:18:54;;;;;;;9.68;8.73;;;;;;;24.86;92.43;99454.81;5029063;28;20197;-58
2022/06/05 04:21:23;;;;;;;12.70;9.05;;;;;;;24.48;95.12;99459.06;5028771;28;20197;-58
2022/06/05 04:23:52;;;;;;;9.60;8.90;;;;;;;24.21;97.17;99458.75;5028628;28;20227;-58
2022/06/05 04:26:20;;;;;;;10.40;9.48;;;;;;;24.04;98.84;99456.72;5028072;28;20237;-58
2022/06/05 04:28:47;;;;;;;9.73;9.05;;;;;;;23.97;99.51;99451.06;5029796;28;20695;-58
2022/06/05 04:31:21;;;;;;;10.02;9.18;;;;;;;23.85;99.46;99433.56;5029630;28;20233;-58
2022/06/05 04:33:48;;;;;;;14.60;9.55;;;;;;;23.91;99.78;99446.31;5033310;28;20201;-59
2022/06/05 04:36:16;;;;;;;12.73;9.32;;;;;;;24.08;98.94;99436.91;5033835;28;20654;-58
2022/06/05 04:38:43;;;;;;;13.02;9.15;;;;;;;24.17;97.66;99436.94;5033806;28;20630;-61
2022/06/05 04:41:12;;;;;;;10.90;9.50;;;;;;;24.00;98.63;99434.91;5033450;28;20595;-61
2022/06/05 04:43:39;;;;;;;10.55;9.10;;;;;;;24.20;98.78;99431.38;5033732;28;20604;-61
2022/06/05 04:46:06;;;;;;;10.95;9.15;;;;;;;25.03;92.69;99432.97;5033658;28;20744;-62
2022/06/05 04:48:34;;;;;;;10.60;9.18;;;;;;;25.99;85.94;99435.56;5033414;28;20204;-61
2022/06/05 04:51:04;;;;;;;9.52;8.55;;;;;;;26.28;82.16;99440.84;5033399;28;20197;-61
2022/06/05 04:53:31;;;;;;;10.88;8.98;;;;;;;27.02;79.13;99435.44;5033359;28;20280;-61
2022/06/05 04:55:58;;;;;;;9.35;8.60;;;;;;;28.48;70.57;99431.25;5033550;28;20209;-62
2022/06/05 04:58:26;;;;;;;9.93;7.82;;;;;;;30.07;62.48;99430.16;5033370;28;20197;-61
2022/06/05 05:00:53;;;;;;;8.63;7.80;;;;;;;31.49;57.61;99437.00;5033357;28;20284;-62
2022/06/05 05:03:20;;;;;;;9.48;7.45;;;;;;;32.54;52.39;99435.16;5020635;28;20198;-63
2022/06/05 05:05:47;;;;;;;9.15;7.53;;;;;;;33.27;49.57;99439.59;5013347;28;20197;-62
2022/06/05 05:08:14;;;;;;;7.55;7.05;;;;;;;33.88;48.30;99439.94;5018139;28;20208;-62
2022/06/05 05:10:41;;;;;;;9.60;7.90;;;;;;;34.49;46.54;99450.94;5033180;28;20296;-62
2022/06/05 05:13:08;;;;;;;14.65;7.30;;;;;;;35.10;44.36;99454.53;5032849;28;20197;-62
2022/06/05 05:15:36;;;;;;;9.18;7.32;;;;;;;35.91;42.40;99449.03;5032722;28;20205;-62
2022/06/05 05:18:04;;;;;;;8.75;7.20;;;;;;;36.55;40.53;99454.56;5032939;28;20699;-62
2022/06/05 05:20:30;;;;;;;7.90;7.20;;;;;;;37.14;39.21;99436.41;5033479;28;20591;-62
2022/06/05 05:22:57;;;;;;;7.80;6.85;;;;;;;37.16;38.29;99432.47;5032840;28;20209;-62
2022/06/05 05:25:25;;;;;;;7.20;6.53;;;;;;;37.09;39.00;99432.50;5022355;28;20218;-62
2022/06/05 05:27:52;;;;;;;8.45;6.60;;;;;;;37.55;38.32;99434.06;5018444;28;20197;-62
2022/06/05 05:30:19;;;;;;;7.80;6.93;;;;;;;37.78;37.34;99436.22;5022580;28;20647;-62
2022/06/05 05:32:47;;;;;;;10.48;7.05;;;;;;;37.28;38.34;99440.72;5022813;28;20211;-62
2022/06/05 05:35:14;;;;;;;11.38;7.28;;;;;;;36.71;39.24;99437.03;5022260;28;20193;-61
2022/06/05 05:37:41;;;;;;;8.60;6.35;;;;;;;37.07;38.31;99440.00;5029166;28;20588;-62
2022/06/05 05:42:54;;;;;;;8.13;7.45;;;;;;;37.18;38.41;99438.50;5033513;28;20283;-62
2022/06/05 05:45:21;;;;;;;20.33;8.02;;;;;;;36.92;39.95;99433.19;5032294;28;20726;-58
2022/06/05 05:47:49;;;;;;;7.15;6.28;;;;;;;37.00;40.62;99435.66;5033216;28;20203;-60
2022/06/05 05:50:17;;;;;;;9.20;6.93;;;;;;;37.00;41.44;99427.56;5033487;28;21190;-61
2022/06/05 05:52:45;;;;;;;7.82;6.93;;;;;;;37.24;39.44;99442.22;5033427;28;20199;-62
2022/06/05 05:55:13;;;;;;;7.03;6.32;;;;;;;37.39;38.50;99438.13;5033268;28;20695;-61
2022/06/05 05:57:41;;;;;;;7.93;6.68;;;;;;;37.49;38.00;99434.09;5033242;28;20193;-62
2022/06/05 06:00:11;;;;;;;14.95;7.45;;;;;;;37.12;39.81;99439.34;5032965;28;20296;-61
2022/06/05 06:02:39;;;;;;;8.40;7.78;;;;;;;36.87;39.86;99439.28;5033263;28;20687;-62
2022/06/05 06:05:10;;;;;;;7.60;6.95;;;;;;;36.93;38.67;99437.56;5032749;28;20229;-62
2022/06/05 06:07:37;;;;;;;8.32;6.90;;;;;;;36.93;39.34;99442.97;5032833;28;20287;-63
2022/06/05 06:10:07;;;;;;;7.13;6.63;;;;;;;36.52;40.47;99436.06;5033001;28;20192;-63
2022/06/05 06:12:34;;;;;;;7.40;6.70;;;;;;;36.66;40.68;99431.44;5032815;28;20201;-62
2022/06/05 06:15:01;;;;;;;6.82;6.32;;;;;;;37.12;38.43;99433.94;5032955;28;20728;-61
2022/06/05 06:17:28;;;;;;;7.30;6.70;;;;;;;36.65;39.14;99425.19;5032774;28;20203;-60
2022/06/05 06:19:55;;;;;;;8.60;6.63;;;;;;;36.49;39.85;99433.78;5032946;28;20588;-62
2022/06/05 06:22:23;;;;;;;11.90;7.10;;;;;;;36.53;39.71;99413.38;5032503;28;20200;-58
2022/06/05 06:24:50;;;;;;;8.48;6.43;;;;;;;36.80;41.28;99426.84;5032563;28;20590;-60
2022/06/05 06:27:17;;;;;;;7.40;6.80;;;;;;;36.62;40.97;99414.78;5032368;28;20205;-62
2022/06/05 06:29:44;;;;;;;8.07;7.28;;;;;;;36.66;40.02;99407.94;5032797;28;20219;-63
2022/06/05 06:32:11;;;;;;;7.78;7.15;;;;;;;36.76;41.36;99412.06;5028434;28;20198;-63
2022/06/05 06:34:38;;;;;;;8.43;7.45;;;;;;;36.35;40.77;99413.22;5020335;28;20280;-62
2022/06/05 06:37:05;;;;;;;7.85;7.03;;;;;;;36.09;42.53;99408.72;5020672;28;20193;-63
2022/06/05 06:39:33;;;;;;;8.20;7.35;;;;;;;35.98;41.51;99412.06;5022075;28;20208;-63
2022/06/05 06:42:01;;;;;;;11.82;7.85;;;;;;;35.85;42.22;99407.50;5020766;28;20202;-63
2022/06/05 06:44:27;;;;;;;11.02;7.50;;;;;;;35.83;42.69;99409.59;5018295;28;20236;-62
2022/06/05 06:46:54;;;;;;;10.30;6.85;;;;;;;35.40;42.83;99408.31;5018540;28;20198;-63
2022/06/05 06:49:21;;;;;;;11.45;7.45;;;;;;;35.45;44.56;99408.50;5018749;28;20203;-62
2022/06/05 06:51:48;;;;;;;13.35;12.13;;;;;;;35.36;43.19;99407.06;5019420;28;20224;-62
2022/06/05 06:54:15;;;;;;;13.13;9.32;;;;;;;35.49;42.81;99407.91;5021295;28;20197;-65
2022/06/05 06:56:44;;;;;;;9.10;8.40;;;;;;;35.46;43.24;99402.06;5016677;28;20297;-63
2022/06/05 06:59:12;;;;;;;8.60;7.80;;;;;;;35.23;43.59;99392.47;5011904;28;20272;-64
2022/06/05 07:01:39;;;;;;;9.07;8.35;;;;;;;35.35;43.70;99397.28;5012647;28;20380;-63
2022/06/05 07:04:05;;;;;;;13.35;12.15;;;;;;;35.61;41.85;99394.59;5012077;28;20232;-64
2022/06/05 07:06:32;;;;;;;9.02;8.13;;;;;;;35.53;42.32;99394.84;5012018;28;20215;-63
2022/06/05 07:08:59;;;;;;;9.43;7.70;;;;;;;35.77;41.50;99391.53;5017786;28;20197;-62
2022/06/05 07:11:26;;;;;;;8.10;7.25;;;;;;;35.70;40.82;99390.66;5011402;28;20727;-59
2022/06/05 07:13:56;;;;;;;8.82;8.10;;;;;;;35.75;41.86;99393.59;5011246;28;20194;-63
2022/06/05 07:16:23;;;;;;;7.43;6.97;;;;;;;35.89;41.12;99381.72;5010399;28;20233;-62
2022/06/05 07:18:50;;;;;;;8.23;7.55;;;;;;;35.93;40.62;99390.25;5010452;28;20555;-62
2022/06/05 07:21:19;;;;;;;8.43;7.60;;;;;;;36.01;40.46;99382.72;5010106;28;20671;-59
2022/06/05 07:23:47;;;;;;;11.80;8.43;;;;;;;36.38;40.61;99381.19;5009390;28;20714;-59
2022/06/05 07:26:17;;;;;;;10.07;8.30;;;;;;;36.56;40.89;99377.81;5010168;28;20230;-62
2022/06/05 07:28:44;;;;;;;17.92;9.38;;;;;;;36.55;42.08;99373.44;5009962;28;20248;-60
2022/06/05 07:31:13;;;;;;;12.55;9.85;;;;;;;36.42;42.00;99370.81;5010247;28;20221;-61
2022/06/05 07:33:42;;;;;;;12.80;9.57;;;;;;;36.28;42.88;99369.19;5009872;28;20222;-62
2022/06/05 07:36:11;;;;;;;11.15;8.30;;;;;;;36.12;41.49;99366.94;5011741;28;20287;-60
2022/06/05 07:38:39;;;;;;;18.77;10.70;;;;;;;35.95;46.83;99361.16;5028904;28;20229;-59
2022/06/05 07:41:14;;;;;;;11.35;8.50;;;;;;;35.85;42.48;99361.59;5023401;28;20257;-60
2022/06/05 07:43:41;;;;;;;10.10;8.35;;;;;;;35.89;42.35;99365.50;5024816;28;20209;-62
2022/06/05 07:46:08;;;;;;;12.52;7.50;;;;;;;35.77;47.06;99359.13;5009632;28;20234;-61
2022/06/05 07:48:36;;;;;;;16.75;8.13;;;;;;;36.15;43.50;99356.50;5028208;28;20219;-62
2022/06/05 07:56:34;;;;;;;8.15;7.35;;;;;;;36.62;40.43;99359.88;5029868;28;20200;-62
2022/06/05 07:59:01;;;;;;;9.50;7.32;;;;;;;37.11;39.33;99355.66;5030073;28;20227;-62
2022/06/05 08:01:28;;;;;;;8.38;7.28;;;;;;;37.44;40.66;99357.09;5030187;28;20207;-64
2022/06/05 08:03:57;;;;;;;8.10;7.15;;;;;;;37.85;37.46;99342.13;5030413;28;20203;-63
2022/06/05 08:06:23;;;;;;;10.57;7.43;;;;;;;37.99;37.64;99359.06;5030385;28;20830;-62
2022/06/05 08:08:50;;;;;;;10.52;7.88;;;;;;;38.35;37.80;99350.13;5029810;28;20215;-63
2022/06/05 08:11:17;;;;;;;8.13;7.50;;;;;;;38.50;37.97;99364.09;5030515;28;20196;-63
2022/06/05 08:13:44;;;;;;;8.77;6.65;;;;;;;38.72;37.24;99357.16;5030481;28;20205;-62
2022/06/05 08:16:11;;;;;;;12.30;7.10;;;;;;;38.75;36.85;99367.56;5030415;28;20197;-62
2022/06/05 08:18:39;;;;;;;10.60;7.55;;;;;;;38.73;38.23;99347.13;5030518;28;20288;-63
2022/06/05 08:21:07;;;;;;;9.43;7.40;;;;;;;39.35;35.67;99358.53;5030633;28;20711;-61
2022/06/05 08:23:34;;;;;;;12.60;7.90;;;;;;;39.32;35.65;99357.13;5030482;28;20592;-61
2022/06/05 08:26:02;;;;;;;10.05;7.75;;;;;;;39.41;34.85;99357.63;5030123;28;20286;-62
2022/06/05 08:28:29;;;;;;;9.05;7.63;;;;;;;39.12;35.91;99348.47;5030721;28;20201;-62
2022/06/05 08:30:56;;;;;;;8.35;7.47;;;;;;;39.06;36.34;99339.34;5030284;28;20197;-62
2022/06/05 08:33:23;;;;;;;8.18;7.13;;;;;;;38.94;36.13;99338.50;5029556;28;20215;-63
2022/06/05 08:35:50;;;;;;;8.38;7.47;;;;;;;38.92;36.42;99339.78;5030266;28;20200;-62
2022/06/05 08:41:27;;;;;;;11.20;8.30;;;;;;;38.29;37.91;99340.19;5030197;28;20199;-61
2022/06/05 08:44:02;;;;;;;8.48;7.82;;;;;;;38.07;36.83;99332.53;5029613;28;20291;-62
2022/06/05 08:46:37;;;;;;;11.32;7.43;;;;;;;37.70;37.54;99336.25;5030567;28;20730;-62
2022/06/05 08:49:09;;;;;;;11.65;7.47;;;;;;;37.47;38.62;99327.91;5030870;28;20694;-61
2022/06/05 08:51:47;;;;;;;9.05;8.13;;;;;;;37.46;38.19;99342.50;5030374;28;20696;-63
2022/06/05 08:54:21;;;;;;;8.07;7.28;;;;;;;37.24;38.50;99323.94;5030276;28;20623;-60
2022/06/05 08:56:50;;;;;;;13.90;8.05;;;;;;;37.13;39.04;99332.75;5030474;28;20199;-62
2022/06/05 08:59:24;;;;;;;8.05;7.28;;;;;;;37.14;38.73;99320.84;5030100;28;20197;-62
2022/06/05 09:01:58;;;;;;;13.82;12.30;;;;;;;36.94;39.56;99322.88;5030188;28;20200;-62
2022/06/05 09:04:39;;;;;;;8.48;7.85;;;;;;;37.13;39.31;99319.22;5030118;28;20621;-62
2022/06/05 09:07:11;;;;;;;9.45;8.18;;;;;;;37.17;39.79;99317.75;5030015;28;20280;-62
2022/06/05 09:09:44;;;;;;;8.05;7.03;;;;;;;37.08;38.97;99319.88;5030105;28;20684;-61
2022/06/05 09:12:18;;;;;;;12.50;8.90;;;;;;;36.95;39.26;99301.03;5029931;28;20738;-61
2022/06/05 09:14:52;;;;;;;10.32;9.50;;;;;;;37.23;39.21;99311.47;5029924;28;20201;-61
2022/06/05 09:17:21;;;;;;;8.80;6.80;;;;;;;37.23;38.70;99307.91;5030149;28;20197;-60
2022/06/05 09:19:51;;;;;;;8.05;7.13;;;;;;;37.12;37.74;99306.72;5033471;28;20583;-61
2022/06/05 09:22:25;;;;;;;7.43;6.88;;;;;;;36.96;37.32;99299.16;5032321;28;20207;-63
2022/06/05 09:25:32;;;;;;;11.68;6.75;;;;;;;36.71;38.15;99299.09;5029620;28;20225;-60
2022/06/05 09:28:15;;;;;;;9.57;8.18;;;;;;;36.97;38.13;99301.63;5022554;28;20315;-62
2022/06/05 09:30:51;;;;;;;7.53;6.88;;;;;;;37.08;37.53;99295.50;5033283;28;20196;-61
2022/06/05 09:33:21;;;;;;;10.40;7.20;;;;;;;37.08;37.61;99295.50;5033369;28;20207;-61
2022/06/05 09:35:51;;;;;;;7.30;6.53;;;;;;;36.86;36.87;99291.53;5033472;28;20199;-61
2022/06/05 09:38:24;;;;;;;7.72;6.57;;;;;;;36.95;35.49;99294.78;5033514;28;20196;-63
2022/06/05 09:41:03;;;;;;;6.95;6.30;;;;;;;37.01;34.87;99289.34;5033606;28;20211;-63
2022/06/05 09:43:56;;;;;;;6.43;5.80;;;;;;;37.37;34.34;99288.59;5033669;28;20307;-63
2022/06/05 09:46:49;;;;;;;7.53;6.40;;;;;;;37.68;33.99;99290.44;5033225;28;20220;-63
2022/06/05 09:49:21;;;;;;;8.27;6.68;;;;;;;37.72;33.11;99282.66;5033393;28;20334;-64
2022/06/05 09:51:48;;;;;;;8.00;6.22;;;;;;;37.70;32.62;99282.88;5033342;28;20239;-62
2022/06/05 09:54:24;;;;;;;9.45;8.65;;;;;;;37.60;32.63;99274.41;5033225;28;20197;-64
2022/06/05 09:59:56;;;;;;;9.52;8.10;;;;;;;37.72;34.16;99275.38;5033086;28;20199;-65
2022/06/05 10:02:24;;;;;;;12.57;9.32;;;;;;;37.51;34.19;99270.34;5023965;28;20653;-64
2022/06/05 10:04:52;;;;;;;10.38;6.38;;;;;;;37.24;34.24;99269.81;5020718;28;20196;-62
2022/06/05 10:07:29;;;;;;;10.73;8.10;;;;;;;36.95;33.77;99267.72;5023247;28;20189;-63
2022/06/05 10:09:56;;;;;;;8.40;7.40;;;;;;;36.79;34.49;99263.69;5023384;28;20197;-63
2022/06/05 10:12:28;;;;;;;7.25;6.65;;;;;;;36.68;34.44;99272.50;5022742;28;20206;-63
2022/06/05 10:15:01;;;;;;;6.97;6.25;;;;;;;36.63;34.47;99253.38;5021374;28;20649;-62
2022/06/05 10:17:43;;;;;;;6.35;5.75;;;;;;;36.40;34.15;99237.72;5022046;28;20586;-59
2022/06/05 10:20:37;;;;;;;9.30;8.40;;;;;;;36.08;35.79;99233.28;5023401;28;20205;-58
2022/06/05 10:23:20;;;;;;;11.73;8.20;;;;;;;35.97;34.64;99230.22;5019228;28;20201;-60
2022/06/05 10:25:55;;;;;;;7.95;7.25;;;;;;;35.75;33.85;99234.25;5025498;28;20221;-58
2022/06/05 10:28:27;;;;;;;11.93;7.85;;;;;;;35.42;35.47;99236.19;5022630;28;20662;-62
2022/06/05 10:31:00;;;;;;;7.00;6.28;;;;;;;35.34;36.06;99228.28;5020052;28;20289;-64
2022/06/05 10:33:43;;;;;;;7.47;6.78;;;;;;;35.22;37.63;99228.91;5018820;28;20201;-63
2022/06/05 10:36:17;;;;;;;6.80;6.28;;;;;;;35.19;36.25;99232.03;5016818;28;20240;-64
2022/06/05 10:38:55;;;;;;;7.25;6.60;;;;;;;35.17;35.32;99230.59;5022876;28;20272;-63
2022/06/05 10:41:28;;;;;;;7.75;5.57;;;;;;;35.01;35.67;99237.22;5023304;28;20258;-64
2022/06/05 10:44:20;;;;;;;9.35;6.38;;;;;;;34.99;35.92;99225.81;5021291;28;20204;-62
2022/06/05 10:47:02;;;;;;;7.22;5.50;;;;;;;34.93;35.99;99213.19;5014548;28;20216;-63
2022/06/05 10:49:35;;;;;;;12.38;7.53;;;;;;;34.83;36.04;99221.69;5014694;28;20662;-59
2022/06/05 10:52:15;;;;;;;7.63;5.63;;;;;;;34.87;36.78;99216.72;5025847;28;20198;-59
2022/06/05 10:54:50;;;;;;;6.65;4.90;;;;;;;34.98;35.88;99208.00;5020292;28;20631;-59
2022/06/05 10:57:21;;;;;;;7.60;6.82;;;;;;;34.98;35.69;99208.00;5021237;28;20311;-62
2022/06/05 11:00:01;;;;;;;7.47;6.75;;;;;;;35.11;35.91;99207.13;5021091;28;20224;-58
2022/06/05 11:02:51;;;;;;;7.72;5.63;;;;;;;35.01;35.06;99210.25;5020439;28;20301;-59
2022/06/05 11:05:38;;;;;;;6.05;5.55;;;;;;;35.08;34.66;99204.88;5022052;28;20232;-60
2022/06/05 11:08:15;;;;;;;5.85;5.30;;;;;;;35.12;35.53;99188.03;5021480;28;20227;-59
2022/06/05 11:13:44;;;;;;;6.45;5.80;;;;;;;35.10;34.22;99183.91;5021534;28;20201;-59
2022/06/05 11:16:26;;;;;;;5.43;4.93;;;;;;;34.98;34.88;99167.53;5020409;28;20196;-57
2022/06/05 11:19:08;;;;;;;8.75;5.30;;;;;;;35.19;34.45;99186.19;5020573;28;20186;-58
2022/06/05 11:21:36;;;;;;;7.72;4.75;;;;;;;35.08;34.13;99178.72;5020399;28;20293;-58
2022/06/05 11:24:08;;;;;;;7.07;5.15;;;;;;;35.00;34.08;99168.13;5019347;28;20201;-60
2022/06/05 11:26:44;;;;;;;5.28;4.60;;;;;;;35.12;34.37;99173.72;5019387;28;20224;-59
2022/06/05 11:29:22;;;;;;;7.55;5.25;;;;;;;35.06;34.31;99172.72;5020932;28;20582;-62
2022/06/05 11:32:06;;;;;;;5.88;5.05;;;;;;;35.11;34.06;99178.28;5013568;28;20201;-62
2022/06/05 11:34:41;;;;;;;5.07;4.75;;;;;;;35.18;33.11;99173.72;5011223;28;20202;-58
2022/06/05 11:37:23;;;;;;;10.60;7.85;;;;;;;35.10;33.30;99181.22;5011546;28;20580;-58
2022/06/05 11:40:00;;;;;;;11.88;7.00;;;;;;;35.07;33.47;99181.63;5011503;28;20625;-63
2022/06/05 11:42:31;;;;;;;9.60;7.90;;;;;;;35.22;33.91;99174.09;5010661;28;20197;-63
2022/06/05 11:45:16;;;;;;;6.30;5.65;;;;;;;35.30;34.17;99174.78;5011446;28;20233;-62
2022/06/05 11:47:52;;;;;;;5.28;4.82;;;;;;;35.15;34.04;99168.75;5011412;28;20194;-62
2022/06/05 11:50:29;;;;;;;6.95;4.80;;;;;;;35.14;33.42;99182.44;5011183;28;20288;-62
2022/06/05 11:53:08;;;;;;;5.22;4.57;;;;;;;35.14;33.67;99180.56;5011152;28;20197;-59
2022/06/05 11:55:40;;;;;;;23.27;20.80;;;;;;;35.20;33.62;99177.03;5012594;28;20280;-61
2022/06/05 11:58:13;;;;;;;10.60;9.00;;;;;;;35.17;33.29;99149.66;5019102;28;20197;-62
2022/06/05 12:00:44;;;;;;;6.07;5.57;;;;;;;35.40;32.71;99168.91;5031013;28;20768;-62
2022/06/05 12:03:17;;;;;;;7.50;4.95;;;;;;;35.47;33.14;99158.09;5030800;28;20201;-62